createdAt,value
2019-01-19T00:00:04.370Z,4.20
2019-01-19T00:02:36.214Z,3.03
2019-01-19T00:05:25.909Z,4.53
2019-01-19T00:08:06.000Z,5.57
2019-01-19T00:10:40.792Z,4.57
2019-01-19T00:13:18.405Z,4.33
2019-01-19T00:16:16.360Z,6.23
2019-01-19T00:18:59.815Z,5.63
2019-01-19T00:21:57.040Z,3.13
2019-01-19T00:24:32.157Z,3.93
2019-01-19T00:27:14.210Z,4.07
2019-01-19T00:30:21.652Z,3.37
2019-01-19T00:33:04.900Z,2.13
2019-01-19T00:35:57.859Z,3.70
2019-01-19T00:38:47.508Z,2.77
2019-01-19T00:41:39.161Z,3.27
2019-01-19T00:44:16.239Z,1.77
2019-01-19T00:46:48.057Z,2.60
2019-01-19T00:49:18.724Z,4.80
2019-01-19T00:51:59.091Z,6.67
2019-01-19T00:54:30.845Z,3.17
2019-01-19T00:57:14.595Z,1.03
2019-01-19T00:59:45.869Z,4.93
2019-01-19T01:02:33.874Z,2.23
2019-01-19T01:05:11.575Z,5.60
2019-01-19T01:08:01.543Z,1.50
2019-01-19T01:10:44.780Z,5.33
2019-01-19T01:13:23.092Z,3.60
2019-01-19T01:15:54.911Z,3.97
2019-01-19T01:18:32.570Z,4.20
2019-01-19T01:21:04.287Z,3.43
2019-01-19T01:23:45.380Z,3.23
2019-01-19T01:26:38.436Z,7.10
2019-01-19T01:29:28.421Z,4.13
2019-01-19T01:32:15.983Z,5.73
2019-01-19T01:35:02.659Z,3.90
2019-01-19T01:37:40.359Z,5.23
2019-01-19T01:40:24.199Z,6.90
2019-01-19T01:43:02.078Z,2.97
2019-01-19T01:45:56.620Z,3.03
2019-01-19T01:48:31.707Z,6.80
2019-01-19T01:51:03.806Z,3.97
2019-01-19T01:53:35.650Z,3.77
2019-01-19T01:56:06.411Z,3.03
2019-01-19T01:58:44.190Z,6.53
2019-01-19T02:01:20.656Z,3.73
2019-01-19T02:03:57.252Z,6.00
2019-01-19T02:06:34.612Z,1.73
2019-01-19T02:09:17.230Z,3.43
2019-01-19T02:12:01.374Z,2.97
2019-01-19T02:14:36.100Z,5.43
2019-01-19T02:17:15.026Z,6.40
2019-01-19T02:19:49.862Z,2.10
2019-01-19T02:22:24.893Z,5.97
2019-01-19T02:25:11.804Z,2.63
2019-01-19T02:27:55.033Z,2.80
2019-01-19T02:30:42.048Z,2.10
2019-01-19T02:33:22.920Z,2.57
2019-01-19T02:36:07.377Z,3.33
2019-01-19T02:38:52.058Z,6.60
2019-01-19T02:41:47.348Z,1.67
2019-01-19T02:44:27.585Z,0.67
2019-01-19T02:47:11.422Z,3.00
2019-01-19T02:50:10.851Z,3.00
2019-01-19T02:52:45.587Z,3.23
2019-01-19T02:55:42.236Z,2.90
2019-01-19T02:58:16.844Z,1.60
2019-01-19T03:01:05.188Z,1.53
2019-01-19T03:03:59.986Z,2.00
2019-01-19T03:07:01.445Z,1.00
2019-01-19T03:09:38.938Z,1.40
2019-01-19T03:12:17.047Z,1.93
2019-01-19T03:15:05.387Z,4.43
2019-01-19T03:17:47.346Z,2.53
2019-01-19T03:20:33.831Z,4.47
2019-01-19T03:23:14.863Z,3.90
2019-01-19T03:26:07.715Z,3.37
2019-01-19T03:28:43.478Z,1.70
2019-01-19T03:31:24.289Z,4.60
2019-01-19T03:34:08.264Z,4.23
2019-01-19T03:36:42.700Z,4.33
2019-01-19T03:42:49.812Z,3.60
2019-01-19T03:45:45.917Z,9.90
2019-01-19T03:48:49.643Z,5.40
2019-01-19T03:51:30.421Z,4.50
2019-01-19T03:54:13.986Z,3.97
2019-01-19T03:56:54.817Z,3.30
2019-01-19T03:59:27.191Z,6.40
2019-01-19T04:02:15.742Z,2.73
2019-01-19T04:04:56.508Z,4.90
2019-01-19T04:07:46.498Z,5.17
2019-01-19T04:10:36.377Z,4.97
2019-01-19T04:13:24.726Z,4.17
2019-01-19T04:16:08.520Z,3.93
2019-01-19T04:18:46.597Z,3.47
2019-01-19T04:21:33.673Z,9.73
2019-01-19T04:24:14.538Z,3.50
2019-01-19T04:26:45.704Z,3.10
2019-01-19T04:29:14.799Z,7.60
2019-01-19T04:31:43.581Z,2.70
2019-01-19T04:34:12.570Z,3.70
2019-01-19T04:36:41.559Z,6.93
2019-01-19T04:39:11.159Z,8.40
2019-01-19T04:41:40.073Z,5.60
2019-01-19T04:44:09.984Z,7.63
2019-01-19T04:46:38.873Z,6.77
2019-01-19T04:49:09.199Z,3.63
2019-01-19T04:51:38.093Z,4.77
2019-01-19T04:54:06.978Z,4.33
2019-01-19T04:56:36.482Z,5.53
2019-01-19T04:59:05.252Z,2.80
2019-01-19T05:01:34.059Z,4.63
2019-01-19T05:04:02.952Z,2.50
2019-01-19T05:06:31.844Z,7.33
2019-01-19T05:09:00.717Z,4.27
2019-01-19T05:11:29.839Z,2.67
2019-01-19T05:13:58.691Z,2.83
2019-01-19T05:16:27.487Z,2.30
2019-01-19T05:18:56.429Z,1.63
2019-01-19T05:21:25.520Z,2.30
2019-01-19T05:23:57.152Z,3.47
2019-01-19T05:26:25.938Z,5.23
2019-01-19T05:28:54.639Z,2.17
2019-01-19T05:31:23.694Z,5.30
2019-01-19T05:33:52.915Z,7.00
2019-01-19T05:36:21.705Z,4.67
2019-01-19T05:38:50.475Z,4.73
2019-01-19T05:41:19.488Z,4.97
2019-01-19T05:43:48.206Z,3.17
2019-01-19T05:46:21.411Z,2.53
2019-01-19T05:48:47.364Z,4.47
2019-01-19T05:51:16.177Z,2.63
2019-01-19T05:53:45.065Z,2.23
2019-01-19T05:56:14.054Z,2.50
2019-01-19T05:58:42.947Z,2.20
2019-01-19T06:01:14.301Z,2.63
2019-01-19T06:03:43.084Z,2.13
2019-01-19T06:06:12.176Z,2.20
2019-01-19T06:08:41.083Z,4.73
2019-01-19T06:11:09.959Z,6.20
2019-01-19T06:13:38.821Z,3.70
2019-01-19T06:16:07.619Z,5.93
2019-01-19T06:18:37.348Z,4.43
2019-01-19T06:21:07.775Z,6.10
2019-01-19T06:23:36.875Z,9.43
2019-01-19T06:26:05.764Z,1.57
2019-01-19T06:28:34.547Z,2.07
2019-01-19T06:31:03.341Z,1.60
2019-01-19T06:33:37.595Z,3.37
2019-01-19T06:36:06.859Z,8.23
2019-01-19T06:38:35.553Z,4.43
2019-01-19T06:41:05.451Z,6.77
2019-01-19T06:43:34.351Z,6.67
2019-01-19T06:46:03.212Z,7.30
2019-01-19T06:48:32.535Z,7.57
2019-01-19T06:51:03.298Z,6.20
2019-01-19T06:53:33.567Z,5.47
2019-01-19T06:56:02.485Z,2.47
2019-01-19T06:58:31.379Z,5.07
2019-01-19T07:01:00.263Z,3.60
2019-01-19T07:03:29.157Z,2.90
2019-01-19T07:05:58.049Z,4.50
2019-01-19T07:08:28.984Z,4.33
2019-01-19T07:10:57.873Z,4.60
2019-01-19T07:13:26.767Z,8.13
2019-01-19T07:15:55.861Z,4.40
2019-01-19T07:18:24.753Z,5.90
2019-01-19T07:20:53.618Z,5.30
2019-01-19T07:23:22.472Z,5.20
2019-01-19T07:25:51.422Z,3.73
2019-01-19T07:28:20.101Z,8.83
2019-01-19T07:30:49.410Z,10.63
2019-01-19T07:33:18.156Z,8.10
2019-01-19T07:35:46.982Z,9.50
2019-01-19T07:38:20.584Z,8.33
2019-01-19T07:40:51.714Z,8.77
2019-01-19T07:43:26.973Z,6.43
2019-01-19T07:45:51.560Z,7.60
2019-01-19T07:48:20.439Z,7.97
2019-01-19T07:50:49.343Z,7.07
2019-01-19T07:53:18.148Z,4.57
2019-01-19T07:55:50.503Z,7.87
2019-01-19T07:58:19.284Z,6.70
2019-01-19T08:00:50.123Z,8.53
2019-01-19T08:03:19.016Z,8.30
2019-01-19T08:05:47.908Z,9.43
2019-01-19T08:08:16.604Z,7.40
2019-01-19T08:10:45.461Z,7.73
2019-01-19T08:13:15.781Z,8.83
2019-01-19T08:15:44.580Z,6.10
2019-01-19T08:18:16.252Z,13.43
2019-01-19T08:20:45.017Z,9.23
2019-01-19T08:23:14.031Z,9.30
2019-01-19T08:25:43.145Z,13.87
2019-01-19T08:28:13.576Z,10.47
2019-01-19T08:30:42.535Z,8.00
2019-01-19T08:33:11.445Z,11.13
2019-01-19T08:35:44.217Z,7.77
2019-01-19T08:38:13.314Z,9.10
2019-01-19T08:40:42.615Z,8.77
2019-01-19T08:43:22.265Z,6.37
2019-01-19T08:45:51.435Z,7.77
2019-01-19T08:48:22.671Z,6.90
2019-01-19T08:50:54.767Z,4.93
2019-01-19T08:53:23.659Z,7.43
2019-01-19T08:55:52.549Z,4.53
2019-01-19T08:58:21.447Z,4.93
2019-01-19T09:00:51.769Z,4.47
2019-01-19T09:03:20.636Z,7.07
2019-01-19T09:05:56.815Z,7.00
2019-01-19T09:08:25.913Z,6.03
2019-01-19T09:10:54.802Z,5.67
2019-01-19T09:13:23.675Z,4.63
2019-01-19T09:15:54.623Z,6.93
2019-01-19T09:18:26.699Z,9.07
2019-01-19T09:20:55.582Z,4.37
2019-01-19T09:23:29.930Z,5.73
2019-01-19T09:25:58.879Z,4.00
2019-01-19T09:28:27.762Z,7.43
2019-01-19T09:30:56.579Z,3.77
2019-01-19T09:33:25.567Z,7.17
2019-01-19T09:35:57.235Z,3.60
2019-01-19T09:38:28.649Z,4.23
2019-01-19T09:40:57.646Z,4.53
2019-01-19T09:43:26.419Z,6.20
2019-01-19T09:45:58.608Z,9.07
2019-01-19T09:48:27.621Z,5.20
2019-01-19T09:50:59.043Z,8.97
2019-01-19T09:53:27.854Z,9.33
2019-01-19T09:55:56.746Z,7.07
2019-01-19T09:58:25.719Z,15.87
2019-01-19T10:01:00.568Z,21.03
2019-01-19T10:03:30.985Z,21.47
2019-01-19T10:05:59.779Z,6.40
2019-01-19T10:08:28.672Z,12.30
2019-01-19T10:10:58.778Z,9.57
2019-01-19T10:13:27.581Z,9.80
2019-01-19T10:16:05.912Z,7.53
2019-01-19T10:18:34.760Z,5.33
2019-01-19T10:21:03.657Z,4.50
2019-01-19T10:23:33.052Z,12.33
2019-01-19T10:26:01.812Z,8.57
2019-01-19T10:28:30.582Z,13.00
2019-01-19T10:31:02.513Z,14.40
2019-01-19T10:33:34.268Z,6.43
2019-01-19T10:36:03.263Z,4.50
2019-01-19T10:38:32.154Z,5.43
2019-01-19T10:41:03.833Z,7.73
2019-01-19T10:43:32.680Z,4.13
2019-01-19T10:46:01.499Z,4.63
2019-01-19T10:48:30.789Z,5.10
2019-01-19T10:50:59.549Z,3.30
2019-01-19T10:53:28.627Z,3.53
2019-01-19T10:55:57.331Z,7.20
2019-01-19T11:01:21.151Z,4.30
2019-01-19T11:03:49.882Z,6.00
2019-01-19T11:06:22.451Z,3.30
2019-01-19T11:08:51.306Z,6.67
2019-01-19T11:11:21.829Z,5.33
2019-01-19T11:13:50.510Z,7.67
2019-01-19T11:16:19.406Z,6.43
2019-01-19T11:18:51.099Z,4.30
2019-01-19T11:21:19.794Z,7.17
2019-01-19T11:23:49.327Z,5.53
2019-01-19T11:26:18.554Z,7.10
2019-01-19T11:28:47.319Z,6.67
2019-01-19T11:31:16.215Z,8.17
2019-01-19T11:33:45.099Z,4.87
2019-01-19T11:36:13.909Z,4.17
2019-01-19T11:38:42.804Z,5.43
2019-01-19T11:41:12.591Z,6.87
2019-01-19T11:43:44.267Z,4.70
2019-01-19T11:46:13.040Z,4.90
2019-01-19T11:48:42.867Z,6.97
2019-01-19T11:51:15.224Z,3.87
2019-01-19T11:53:44.264Z,6.20
2019-01-19T11:56:16.031Z,6.53
2019-01-19T11:58:49.711Z,4.67
2019-01-19T12:01:18.492Z,5.07
2019-01-19T12:03:47.476Z,3.73
2019-01-19T12:06:18.914Z,2.20
2019-01-19T12:08:48.598Z,5.00
2019-01-19T12:11:17.419Z,5.67
2019-01-19T12:13:46.165Z,4.80
2019-01-19T12:16:14.930Z,10.30
2019-01-19T12:18:48.619Z,5.87
2019-01-19T12:21:21.513Z,4.27
2019-01-19T12:23:51.913Z,5.70
2019-01-19T12:26:20.802Z,5.03
2019-01-19T12:28:49.584Z,7.07
2019-01-19T12:31:18.345Z,6.67
2019-01-19T12:33:47.775Z,8.67
2019-01-19T12:36:16.652Z,8.67
2019-01-19T12:38:45.450Z,4.23
2019-01-19T12:41:15.890Z,6.77
2019-01-19T12:43:51.759Z,5.57
2019-01-19T12:46:20.684Z,6.73
2019-01-19T12:48:49.470Z,6.83
2019-01-19T12:51:19.338Z,4.80
2019-01-19T12:53:48.442Z,8.27
2019-01-19T12:56:19.064Z,4.53
2019-01-19T12:58:48.801Z,7.53
2019-01-19T13:01:17.564Z,8.13
2019-01-19T13:03:46.391Z,7.60
2019-01-19T13:06:18.400Z,8.80
2019-01-19T13:08:49.454Z,6.80
2019-01-19T13:11:39.323Z,8.27
2019-01-19T13:14:08.432Z,5.23
2019-01-19T13:16:59.046Z,5.20
2019-01-19T13:19:31.079Z,8.97
2019-01-19T13:22:30.580Z,7.43
2019-01-19T13:25:27.263Z,8.33
2019-01-19T13:28:17.129Z,5.57
2019-01-19T13:31:05.886Z,9.43
2019-01-19T13:34:01.945Z,11.10
2019-01-19T13:36:38.961Z,7.27
2019-01-19T13:39:14.855Z,5.20
2019-01-19T13:41:55.707Z,5.03
2019-01-19T13:44:36.116Z,5.27
2019-01-19T13:47:24.402Z,4.80
2019-01-19T13:50:07.889Z,7.30
2019-01-19T13:52:45.371Z,19.70
2019-01-19T13:55:19.729Z,8.03
2019-01-19T13:58:11.480Z,11.60
2019-01-19T14:00:55.030Z,10.93
2019-01-19T14:03:32.535Z,2.87
2019-01-19T14:06:08.974Z,4.23
2019-01-19T14:08:56.499Z,4.40
2019-01-19T14:12:03.605Z,4.47
2019-01-19T14:14:43.949Z,3.70
2019-01-19T14:17:37.002Z,5.13
2019-01-19T14:20:46.031Z,4.07
2019-01-19T14:23:19.783Z,4.97
2019-01-19T14:26:16.565Z,6.17
2019-01-19T14:29:16.884Z,5.13
2019-01-19T14:32:06.596Z,7.37
2019-01-19T14:34:38.570Z,15.63
2019-01-19T14:37:12.969Z,6.87
2019-01-19T14:39:56.629Z,6.87
2019-01-19T14:42:43.217Z,4.70
2019-01-19T14:45:20.813Z,7.80
2019-01-19T14:47:55.315Z,6.70
2019-01-19T14:50:47.281Z,5.23
2019-01-19T14:53:34.195Z,4.73
2019-01-19T14:56:23.657Z,7.10
2019-01-19T14:59:13.346Z,3.77
2019-01-19T15:02:05.271Z,3.40
2019-01-19T15:04:48.569Z,5.17
2019-01-19T15:07:29.214Z,6.47
2019-01-19T15:10:19.360Z,3.93
2019-01-19T15:12:59.835Z,11.10
2019-01-19T15:15:50.728Z,10.20
2019-01-19T15:18:48.357Z,4.80
2019-01-19T15:21:26.090Z,5.80
2019-01-19T15:24:10.446Z,6.97
2019-01-19T15:26:51.402Z,5.93
2019-01-19T15:29:41.400Z,10.03
2019-01-19T15:32:25.065Z,4.00
2019-01-19T15:35:11.988Z,5.27
2019-01-19T15:37:52.730Z,4.57
2019-01-19T15:40:42.583Z,9.67
2019-01-19T15:43:58.599Z,7.63
2019-01-19T15:47:01.895Z,5.63
2019-01-19T15:49:53.298Z,7.03
2019-01-19T15:52:40.008Z,21.80
2019-01-19T15:55:17.830Z,8.37
2019-01-19T15:58:07.807Z,9.83
2019-01-19T16:00:54.414Z,15.37
2019-01-19T16:03:47.318Z,11.17
2019-01-19T16:06:35.919Z,8.40
2019-01-19T16:09:22.823Z,9.87
2019-01-19T16:11:57.458Z,10.43
2019-01-19T16:14:47.871Z,6.77
2019-01-19T16:17:28.406Z,8.37
2019-01-19T16:20:12.034Z,10.33
2019-01-19T16:22:48.099Z,5.83
2019-01-19T16:25:19.838Z,8.20
2019-01-19T16:28:06.759Z,7.87
2019-01-19T16:31:04.450Z,6.67
2019-01-19T16:33:44.896Z,8.20
2019-01-19T16:36:22.910Z,6.63
2019-01-19T16:39:04.605Z,4.60
2019-01-19T16:41:36.445Z,9.13
2019-01-19T16:44:28.166Z,7.63
2019-01-19T16:47:17.355Z,6.67
2019-01-19T16:50:06.323Z,8.93
2019-01-19T16:52:44.619Z,7.53
2019-01-19T16:55:25.077Z,12.53
2019-01-19T16:58:12.024Z,20.43
2019-01-19T17:00:56.768Z,11.63
2019-01-19T17:03:36.106Z,10.60
2019-01-19T17:06:32.949Z,12.17
2019-01-19T17:09:32.937Z,8.90
2019-01-19T17:12:20.791Z,10.50
2019-01-19T17:15:21.647Z,9.63
2019-01-19T17:18:05.878Z,14.87
2019-01-19T17:21:00.212Z,9.27
2019-01-19T17:23:45.511Z,8.37
2019-01-19T17:26:22.065Z,10.50
2019-01-19T17:28:56.268Z,12.77
2019-01-19T17:31:30.514Z,9.97
2019-01-19T17:34:26.284Z,19.20
2019-01-19T17:36:58.326Z,10.63
2019-01-19T17:39:49.658Z,11.60
2019-01-19T17:42:21.417Z,10.43
2019-01-19T17:45:32.090Z,8.33
2019-01-19T17:48:23.714Z,10.23
2019-01-19T17:51:01.416Z,10.90
2019-01-19T17:53:59.692Z,14.40
2019-01-19T17:56:31.555Z,21.07
2019-01-19T17:59:04.538Z,24.33
2019-01-19T18:02:02.741Z,25.07
2019-01-19T18:04:53.721Z,18.60
2019-01-19T18:07:46.478Z,8.70
2019-01-19T18:10:41.268Z,12.47
2019-01-19T18:13:33.302Z,13.70
2019-01-19T18:16:17.147Z,11.77
2019-01-19T18:19:03.390Z,11.37
2019-01-19T18:21:49.763Z,12.57
2019-01-19T18:24:42.376Z,17.37
2019-01-19T18:27:20.239Z,17.37
2019-01-19T18:29:55.019Z,15.73
2019-01-19T18:32:41.562Z,21.40
2019-01-19T18:35:38.444Z,13.10
2019-01-19T18:38:22.029Z,16.97
2019-01-19T18:41:10.556Z,15.17
2019-01-19T18:43:48.665Z,19.57
2019-01-19T18:46:22.985Z,16.53
2019-01-19T18:48:58.613Z,16.87
2019-01-19T18:51:34.212Z,14.13
2019-01-19T18:54:12.022Z,18.60
2019-01-19T18:56:52.013Z,17.43
2019-01-19T18:59:29.497Z,17.30
2019-01-19T19:02:15.409Z,19.70
2019-01-19T19:05:23.397Z,13.63
2019-01-19T19:08:10.133Z,19.00
2019-01-19T19:10:58.675Z,11.10
2019-01-19T19:13:36.170Z,13.10
2019-01-19T19:16:36.581Z,13.07
2019-01-19T19:19:17.161Z,9.97
2019-01-19T19:22:00.945Z,5.93
2019-01-19T19:24:50.839Z,10.23
2019-01-19T19:27:28.698Z,8.27
2019-01-19T19:30:01.127Z,8.00
2019-01-19T19:33:07.750Z,38.17
2019-01-19T19:35:53.475Z,25.00
2019-01-19T19:39:10.531Z,29.73
2019-01-19T19:41:21.715Z,25.67
2019-01-19T19:44:05.643Z,14.47
2019-01-19T19:46:53.705Z,17.57
2019-01-19T19:49:34.289Z,13.07
2019-01-19T19:52:03.748Z,12.67
2019-01-19T19:54:40.131Z,16.70
2019-01-19T19:59:57.355Z,16.93
2019-01-19T20:02:26.773Z,13.70
2019-01-19T20:04:55.670Z,17.07
2019-01-19T20:07:25.880Z,15.27
2019-01-19T20:09:57.134Z,18.73
2019-01-19T20:12:27.614Z,16.90
2019-01-19T20:14:59.987Z,20.10
2019-01-19T20:17:30.365Z,13.57
2019-01-19T20:20:02.938Z,13.13
2019-01-19T20:22:32.340Z,13.77
2019-01-19T20:25:08.376Z,14.70
2019-01-19T20:27:37.396Z,11.30
2019-01-19T20:30:15.442Z,9.17
2019-01-19T20:32:51.869Z,18.27
2019-01-19T20:35:21.270Z,14.63
2019-01-19T20:37:50.361Z,14.37
2019-01-19T20:40:24.569Z,16.77
2019-01-19T20:42:51.778Z,15.20
2019-01-19T20:45:26.993Z,15.57
2019-01-19T20:47:56.328Z,9.27
2019-01-19T20:50:26.920Z,11.77
2019-01-19T20:52:58.432Z,11.70
2019-01-19T20:55:27.346Z,11.40
2019-01-19T20:57:56.436Z,13.37
2019-01-19T21:00:27.202Z,11.33
2019-01-19T21:02:58.976Z,12.27
2019-01-19T21:05:30.537Z,10.30
2019-01-19T21:07:59.691Z,15.93
2019-01-19T21:10:31.861Z,9.30
2019-01-19T21:13:08.524Z,7.33
2019-01-19T21:15:37.419Z,13.67
2019-01-19T21:18:06.202Z,13.70
2019-01-19T21:20:35.173Z,10.00
2019-01-19T21:23:04.185Z,11.80
2019-01-19T21:25:33.077Z,9.90
2019-01-19T21:28:03.194Z,10.10
2019-01-19T21:30:37.855Z,11.47
2019-01-19T21:33:11.008Z,12.30
2019-01-19T21:35:41.371Z,10.20
2019-01-19T21:38:10.341Z,12.37
2019-01-19T21:40:39.434Z,7.10
2019-01-19T21:43:11.796Z,11.97
2019-01-19T21:45:47.139Z,9.40
2019-01-19T21:48:16.033Z,13.33
2019-01-19T21:50:45.705Z,8.43
2019-01-19T21:53:15.751Z,11.47
2019-01-19T21:55:44.859Z,12.37
2019-01-19T21:58:18.044Z,18.97
2019-01-19T22:00:47.957Z,11.10
2019-01-19T22:03:17.878Z,15.53
2019-01-19T22:05:49.711Z,18.00
2019-01-19T22:08:17.583Z,12.87
2019-01-19T22:10:46.759Z,10.90
2019-01-19T22:13:19.865Z,9.57
2019-01-19T22:15:51.850Z,9.83
2019-01-19T22:18:21.148Z,10.27
2019-01-19T22:21:00.699Z,10.23
2019-01-19T22:23:29.695Z,11.67
2019-01-19T22:26:01.848Z,6.30
2019-01-19T22:28:34.016Z,11.63
2019-01-19T22:31:04.141Z,12.37
2019-01-19T22:33:34.253Z,9.10
2019-01-19T22:36:07.417Z,8.57
2019-01-19T22:38:45.145Z,10.40
2019-01-19T22:41:14.249Z,7.10
2019-01-19T22:43:43.747Z,10.57
2019-01-19T22:46:12.738Z,8.20
2019-01-19T22:48:43.990Z,7.93
2019-01-19T22:51:12.880Z,9.70
2019-01-19T22:53:42.260Z,10.13
2019-01-19T22:56:11.270Z,14.07
2019-01-19T22:58:40.062Z,8.40
2019-01-19T23:01:14.775Z,10.80
2019-01-19T23:03:43.680Z,8.93
2019-01-19T23:06:15.641Z,10.07
2019-01-19T23:08:48.250Z,11.67
2019-01-19T23:11:17.110Z,10.57
2019-01-19T23:13:47.475Z,12.23
2019-01-19T23:16:17.053Z,9.67
2019-01-19T23:18:45.928Z,10.10
2019-01-19T23:21:14.820Z,12.73
2019-01-19T23:23:43.708Z,10.60
2019-01-19T23:26:14.444Z,8.43
2019-01-19T23:28:43.538Z,10.43
2019-01-19T23:31:12.840Z,8.23
2019-01-19T23:33:41.734Z,8.10
2019-01-19T23:36:10.499Z,8.10
2019-01-19T23:38:40.846Z,11.43
2019-01-19T23:41:10.035Z,8.77
2019-01-19T23:43:38.814Z,12.03
2019-01-19T23:46:10.895Z,8.07
2019-01-19T23:48:39.769Z,8.30
2019-01-19T23:51:11.747Z,11.57
2019-01-19T23:53:46.083Z,13.20
2019-01-19T23:56:17.321Z,9.93
2019-01-19T23:58:46.117Z,13.60
